Time;durP1;ratioP1;P1;durP2;ratioP2;P2;SDS_P1;SDS_P2;PMS_P1;PMS_P2;Temp;Humidity;BMP_temperature;BMP_pressure;BME280_temperature;BME280_humidity;BME280_pressure;Samples;Min_cycle;Max_cycle;Signal;HPM_P1;HPM_P2
2022/04/04 00:01:25;;;;;;;19.00;11.93;;;21.40;92.80;;;;;;4176773;28;20048;-73
2022/04/04 00:03:31;;;;;;;21.35;11.48;;;21.30;93.40;;;;;;4173870;28;20087;-73
2022/04/04 00:05:36;;;;;;;19.92;11.35;;;21.50;93.20;;;;;;4176440;28;20059;-74
2022/04/04 00:07:43;;;;;;;18.80;11.40;;;21.60;92.80;;;;;;4177172;28;20473;-73
2022/04/04 00:09:49;;;;;;;17.25;11.05;;;21.60;92.60;;;;;;4173409;28;20051;-74
2022/04/04 00:11:56;;;;;;;17.33;10.93;;;21.80;92.50;;;;;;4177075;28;20126;-74
2022/04/04 00:14:03;;;;;;;15.10;10.63;;;21.80;92.40;;;;;;4176885;28;20664;-75
2022/04/04 00:16:10;;;;;;;15.55;10.77;;;21.70;92.50;;;;;;4158619;28;20583;-74
2022/04/04 00:18:15;;;;;;;16.63;10.63;;;21.80;92.70;;;;;;4175581;28;20043;-73
2022/04/04 00:20:19;;;;;;;18.58;11.07;;;21.80;92.70;;;;;;4167816;28;20427;-73
2022/04/04 00:22:25;;;;;;;16.80;11.15;;;21.60;93.00;;;;;;4166201;28;20743;-75
2022/04/04 00:24:31;;;;;;;18.27;11.40;;;21.50;93.20;;;;;;4163907;28;20068;-74
2022/04/04 00:26:37;;;;;;;22.52;11.98;;;21.60;92.90;;;;;;4164077;28;20055;-73
2022/04/04 00:28:44;;;;;;;20.15;11.40;;;21.70;92.60;;;;;;4168128;28;20049;-74
2022/04/04 00:30:48;;;;;;;21.38;13.23;;;21.50;93.00;;;;;;4164796;28;20056;-76
2022/04/04 00:32:53;;;;;;;25.13;13.52;;;21.50;93.20;;;;;;4167327;28;20048;-69
2022/04/04 00:35:00;;;;;;;20.67;13.60;;;21.30;93.20;;;;;;4162969;28;20077;-73
2022/04/04 00:37:05;;;;;;;19.90;12.95;;;21.40;93.00;;;;;;4145463;28;20041;-70
2022/04/04 00:39:11;;;;;;;21.38;12.68;;;21.50;92.90;;;;;;4141862;28;20059;-70
2022/04/04 00:41:17;;;;;;;21.52;13.32;;;21.70;92.90;;;;;;4161271;28;20107;-69
2022/04/04 00:43:22;;;;;;;18.48;12.38;;;21.50;92.30;;;;;;4141966;28;20080;-68
2022/04/04 00:45:26;;;;;;;14.25;10.35;;;21.50;92.10;;;;;;4160190;28;20095;-65
2022/04/04 00:47:31;;;;;;;19.98;11.18;;;21.40;91.70;;;;;;4158418;28;20591;-68
2022/04/04 00:49:35;;;;;;;18.27;11.40;;;21.20;91.90;;;;;;4165553;28;20106;-67
2022/04/04 00:51:42;;;;;;;18.65;11.00;;;21.30;92.00;;;;;;4155657;28;20140;-67
2022/04/04 00:53:47;;;;;;;17.42;10.70;;;21.40;91.80;;;;;;4158782;28;20045;-67
2022/04/04 00:55:51;;;;;;;16.75;10.35;;;21.50;91.50;;;;;;4159483;28;20053;-68
2022/04/04 00:57:57;;;;;;;15.25;10.10;;;21.50;91.70;;;;;;4159609;28;20128;-69
2022/04/04 01:00:09;;;;;;;17.50;10.13;;;21.50;91.30;;;;;;4159571;28;20050;-69
2022/04/04 01:02:13;;;;;;;14.57;9.75;;;21.40;91.30;;;;;;4137015;28;20181;-73
2022/04/04 01:04:18;;;;;;;23.20;10.15;;;21.50;91.00;;;;;;4131327;28;20050;-74
2022/04/04 01:06:24;;;;;;;18.80;10.13;;;21.40;90.90;;;;;;4148739;28;20080;-74
2022/04/04 01:08:28;;;;;;;14.80;9.02;;;21.30;91.00;;;;;;4148800;28;20108;-73
2022/04/04 01:10:35;;;;;;;13.70;8.68;;;21.40;90.90;;;;;;4142156;28;20542;-74
2022/04/04 01:12:53;;;;;;;18.20;8.90;;;21.50;90.50;;;;;;4159425;28;20080;-73
2022/04/04 01:14:57;;;;;;;17.45;9.10;;;21.50;90.40;;;;;;4159474;28;20099;-73
2022/04/04 01:17:05;;;;;;;18.95;10.10;;;21.40;90.30;;;;;;4144472;28;20120;-73
2022/04/04 01:19:10;;;;;;;15.00;9.23;;;21.40;90.70;;;;;;4129094;28;20054;-73
2022/04/04 01:21:21;;;;;;;14.55;9.35;;;21.70;90.40;;;;;;4173401;28;20487;-72
2022/04/04 01:23:30;;;;;;;14.18;8.20;;;21.50;90.20;;;;;;4157778;28;20049;-73
2022/04/04 01:25:35;;;;;;;17.50;8.30;;;21.60;90.10;;;;;;4126275;28;20105;-72
2022/04/04 01:27:40;;;;;;;14.48;7.78;;;21.80;90.00;;;;;;4173406;28;20053;-72
2022/04/04 01:29:47;;;;;;;15.15;8.00;;;21.80;89.00;;;;;;4174551;28;20488;-72
2022/04/04 01:31:52;;;;;;;14.40;7.72;;;21.90;88.30;;;;;;4157146;28;20073;-71
2022/04/04 01:33:57;;;;;;;12.57;7.57;;;22.00;89.00;;;;;;4174500;28;20124;-74
2022/04/04 01:36:01;;;;;;;13.55;7.40;;;22.10;89.50;;;;;;4157154;28;20049;-70
2022/04/04 01:38:14;;;;;;;13.65;7.68;;;22.10;88.70;;;;;;4175069;28;20045;-73
2022/04/04 01:40:19;;;;;;;11.80;6.80;;;22.20;89.00;;;;;;4166769;28;20049;-73
2022/04/04 01:42:27;;;;;;;11.00;6.75;;;22.10;88.30;;;;;;4176452;28;20428;-72
2022/04/04 01:44:34;;;;;;;14.18;6.90;;;22.10;88.00;;;;;;4160197;28;20144;-73
2022/04/04 01:46:41;;;;;;;14.90;6.60;;;22.10;87.70;;;;;;4156599;28;20558;-73
2022/04/04 01:48:48;;;;;;;12.95;6.35;;;22.20;86.70;;;;;;4175623;28;20045;-74
2022/04/04 01:50:56;;;;;;;15.88;7.05;;;22.00;86.70;;;;;;4156833;28;20055;-73
2022/04/04 01:55:22;;;;;;;10.93;5.80;;;22.20;85.90;;;;;;4168009;28;20111;-74
2022/04/04 01:57:28;;;;;;;10.95;6.55;;;22.00;87.80;;;;;;4177595;28;20127;-73
2022/04/04 01:59:34;;;;;;;13.63;6.68;;;22.10;86.20;;;;;;4179279;28;20052;-72
2022/04/04 02:01:41;;;;;;;14.48;6.53;;;22.10;87.40;;;;;;4175183;28;20055;-72
2022/04/04 02:03:50;;;;;;;12.75;6.63;;;22.20;86.80;;;;;;4162895;28;20056;-72
2022/04/04 02:05:56;;;;;;;12.10;6.32;;;22.40;87.10;;;;;;4157662;28;20104;-72
2022/04/04 02:08:03;;;;;;;12.32;6.43;;;22.50;85.10;;;;;;4175737;28;20053;-70
2022/04/04 02:10:08;;;;;;;13.00;6.47;;;22.50;86.40;;;;;;4142103;28;20045;-68
2022/04/04 02:12:13;;;;;;;10.32;6.57;;;22.70;86.50;;;;;;4175821;28;20045;-70
2022/04/04 02:14:19;;;;;;;12.15;6.40;;;22.80;86.90;;;;;;4157245;28;20041;-69
2022/04/04 02:16:25;;;;;;;14.65;6.72;;;22.90;86.10;;;;;;4175923;28;20566;-70
2022/04/04 02:18:30;;;;;;;15.65;6.70;;;22.80;85.80;;;;;;4174835;28;20091;-70
2022/04/04 02:20:37;;;;;;;10.57;6.30;;;22.80;86.10;;;;;;4174330;28;20562;-72
2022/04/04 02:22:45;;;;;;;14.25;6.80;;;22.60;86.40;;;;;;4174188;28;20753;-73
2022/04/04 02:24:51;;;;;;;17.23;6.95;;;22.40;85.60;;;;;;4173227;28;20053;-72
2022/04/04 02:26:59;;;;;;;10.90;6.72;;;22.50;86.00;;;;;;4156307;28;20107;-71
2022/04/04 02:29:11;;;;;;;16.63;6.65;;;22.40;85.30;;;;;;4147599;28;20056;-72
2022/04/04 02:31:18;;;;;;;19.48;7.20;;;22.60;86.30;;;;;;4141909;28;20046;-72
2022/04/04 02:33:24;;;;;;;15.25;7.20;;;22.60;85.80;;;;;;4139809;28;20050;-71
2022/04/04 02:35:29;;;;;;;13.15;6.50;;;22.60;85.70;;;;;;4152771;28;20042;-71
2022/04/04 02:37:34;;;;;;;12.40;7.15;;;22.80;86.00;;;;;;4156903;28;20432;-73
2022/04/04 02:39:40;;;;;;;13.82;6.47;;;23.00;86.20;;;;;;4177374;28;20610;-71
2022/04/04 02:41:46;;;;;;;12.90;6.93;;;23.10;85.80;;;;;;4179049;28;20842;-70
2022/04/04 02:43:51;;;;;;;12.70;7.10;;;23.10;84.80;;;;;;4180616;28;20052;-71
2022/04/04 02:45:56;;;;;;;11.63;6.70;;;23.20;85.00;;;;;;4162648;28;20510;-71
2022/04/04 02:48:03;;;;;;;12.95;6.75;;;23.30;84.40;;;;;;4181065;28;20048;-71
2022/04/04 02:50:10;;;;;;;11.85;6.82;;;23.20;84.90;;;;;;4131198;28;20049;-69
2022/04/04 02:52:27;;;;;;;13.35;6.30;;;23.20;83.80;;;;;;4172512;28;20036;-71
2022/04/04 02:54:34;;;;;;;16.75;7.20;;;22.90;85.10;;;;;;4161672;28;20048;-70
2022/04/04 02:56:41;;;;;;;13.32;6.97;;;22.90;85.40;;;;;;4142964;28;20049;-72
2022/04/04 02:58:49;;;;;;;10.35;6.75;;;23.20;85.90;;;;;;4128897;28;20154;-72
2022/04/04 03:00:55;;;;;;;11.85;6.25;;;23.40;84.40;;;;;;4178874;28;20056;-74
2022/04/04 03:03:00;;;;;;;11.20;6.93;;;23.50;83.10;;;;;;4177018;28;20071;-71
2022/04/04 03:05:05;;;;;;;12.55;6.43;;;23.50;84.00;;;;;;4160989;28;20779;-73
2022/04/04 03:07:10;;;;;;;11.45;6.40;;;23.50;83.70;;;;;;4178941;28;20081;-72
2022/04/04 03:09:14;;;;;;;14.57;6.68;;;23.40;82.90;;;;;;4178955;28;20045;-72
2022/04/04 03:11:20;;;;;;;10.88;6.85;;;23.10;83.40;;;;;;4177751;28;20045;-73
2022/04/04 03:13:26;;;;;;;12.25;6.70;;;23.30;84.80;;;;;;4161380;28;20103;-73
2022/04/04 03:15:34;;;;;;;10.30;6.50;;;23.80;83.90;;;;;;4161642;28;20440;-73
2022/04/04 03:17:43;;;;;;;12.20;7.13;;;23.90;84.50;;;;;;4178016;28;20455;-74
2022/04/04 03:20:07;;;;;;;15.15;6.47;;;24.30;84.00;;;;;;4178475;28;20076;-71
2022/04/04 03:22:12;;;;;;;14.35;6.32;;;24.40;82.70;;;;;;4158956;28;20042;-72
2022/04/04 03:24:20;;;;;;;12.15;6.72;;;24.10;82.70;;;;;;4158318;28;20045;-73
2022/04/04 03:26:31;;;;;;;10.25;6.05;;;24.20;83.60;;;;;;4160493;28;20088;-73
2022/04/04 03:28:36;;;;;;;12.10;6.15;;;24.30;81.90;;;;;;4178529;28;20057;-72
2022/04/04 03:30:40;;;;;;;10.38;6.38;;;24.50;83.00;;;;;;4144019;28;20049;-73
2022/04/04 03:32:49;;;;;;;13.57;6.47;;;24.30;80.70;;;;;;4180234;28;20126;-74
2022/04/04 03:34:53;;;;;;;15.27;5.95;;;24.20;80.80;;;;;;4142132;28;20041;-73
2022/04/04 03:37:00;;;;;;;11.32;6.18;;;24.20;80.70;;;;;;4182768;28;20047;-75
2022/04/04 03:39:06;;;;;;;11.68;5.60;;;24.10;79.90;;;;;;4182176;28;20700;-74
2022/04/04 03:41:11;;;;;;;12.15;5.50;;;24.20;80.80;;;;;;4182205;28;20123;-74
2022/04/04 03:43:17;;;;;;;9.75;5.82;;;24.20;80.60;;;;;;4182256;28;20472;-74
2022/04/04 03:45:25;;;;;;;10.50;5.78;;;24.20;80.60;;;;;;4182175;28;20091;-75
2022/04/04 03:47:29;;;;;;;9.60;5.75;;;24.30;80.50;;;;;;4181549;28;20523;-75
2022/04/04 03:49:34;;;;;;;11.10;6.57;;;24.30;80.60;;;;;;4181800;28;20060;-74
2022/04/04 03:51:38;;;;;;;12.35;7.72;;;24.40;79.30;;;;;;4180783;28;20127;-75
2022/04/04 03:53:43;;;;;;;13.35;6.68;;;24.50;80.50;;;;;;4181745;28;20036;-74
2022/04/04 03:55:50;;;;;;;13.00;6.03;;;24.60;80.20;;;;;;4188307;28;20033;-74
2022/04/04 03:57:57;;;;;;;11.20;5.30;;;24.80;78.70;;;;;;4164352;28;20046;-74
2022/04/04 04:00:03;;;;;;;11.68;4.97;;;24.60;79.50;;;;;;4181793;28;20075;-74
2022/04/04 04:02:09;;;;;;;10.00;5.47;;;24.60;79.30;;;;;;4182146;28;20164;-75
2022/04/04 04:04:16;;;;;;;9.43;5.32;;;24.60;79.00;;;;;;4180803;28;20037;-75
2022/04/04 04:06:21;;;;;;;9.43;5.30;;;24.50;80.20;;;;;;4163755;28;20053;-74
2022/04/04 04:08:27;;;;;;;13.43;5.60;;;24.70;79.20;;;;;;4180671;28;20072;-75
2022/04/04 04:10:34;;;;;;;11.77;5.97;;;24.80;79.40;;;;;;4180950;28;20041;-75
2022/04/04 04:12:43;;;;;;;11.18;5.72;;;24.70;79.00;;;;;;4181770;28;20040;-76
2022/04/04 04:14:51;;;;;;;11.43;5.68;;;24.90;79.40;;;;;;4163932;28;20049;-75
2022/04/04 04:17:00;;;;;;;17.52;9.02;;;24.80;77.60;;;;;;4180968;28;20041;-74
2022/04/04 04:20:19;;;;;;;11.00;5.70;;;24.90;78.80;;;;;;4163937;28;20440;-75
2022/04/04 04:21:31;;;;;;;10.35;4.97;;;25.10;78.60;;;;;;4181828;28;20076;-75
2022/04/04 04:23:38;;;;;;;9.32;4.95;;;25.10;76.40;;;;;;4181498;28;20037;-75
2022/04/04 04:25:43;;;;;;;9.82;5.20;;;24.90;76.50;;;;;;4184769;28;20055;-75
2022/04/04 04:27:50;;;;;;;8.88;5.03;;;25.00;76.40;;;;;;4162566;28;20274;-75
2022/04/04 04:29:56;;;;;;;9.90;4.90;;;25.20;75.60;;;;;;4179747;28;20052;-75
2022/04/04 04:32:01;;;;;;;12.75;5.32;;;25.30;75.50;;;;;;4181279;28;20090;-75
2022/04/04 04:34:09;;;;;;;10.70;4.60;;;25.40;75.80;;;;;;4180947;28;20073;-75
2022/04/04 04:36:15;;;;;;;11.70;4.85;;;25.40;74.70;;;;;;4186905;28;20597;-72
2022/04/04 04:38:20;;;;;;;10.45;4.28;;;25.60;74.50;;;;;;4161204;28;20049;-72
2022/04/04 04:40:27;;;;;;;11.13;4.30;;;25.70;75.60;;;;;;4179615;28;20055;-72
2022/04/04 04:42:35;;;;;;;10.57;4.53;;;25.70;74.10;;;;;;4161528;28;20041;-72
2022/04/04 04:44:39;;;;;;;11.82;4.65;;;25.80;74.50;;;;;;4176542;28;20044;-72
2022/04/04 04:46:46;;;;;;;11.30;4.65;;;25.80;73.20;;;;;;4161879;28;20807;-73
2022/04/04 04:48:52;;;;;;;9.32;4.85;;;25.70;73.00;;;;;;4162014;28;20060;-73
2022/04/04 04:50:57;;;;;;;11.85;4.53;;;25.70;72.30;;;;;;4179611;28;20047;-73
2022/04/04 04:53:04;;;;;;;10.40;4.40;;;25.70;72.20;;;;;;4180266;28;20045;-73
2022/04/04 04:55:10;;;;;;;10.68;4.45;;;25.70;73.00;;;;;;4179684;28;20041;-72
2022/04/04 04:57:15;;;;;;;10.85;4.65;;;25.80;73.50;;;;;;4180490;28;20476;-73
2022/04/04 04:59:21;;;;;;;10.48;5.28;;;25.90;72.90;;;;;;4179784;28;20069;-73
2022/04/04 05:01:27;;;;;;;9.43;4.90;;;25.80;72.00;;;;;;4179206;28;20051;-73
2022/04/04 05:03:33;;;;;;;11.38;4.60;;;25.90;72.20;;;;;;4178812;28;20059;-71
2022/04/04 05:05:40;;;;;;;8.85;5.20;;;25.90;72.10;;;;;;4176386;28;20084;-72
2022/04/04 05:07:47;;;;;;;12.60;5.47;;;25.80;71.10;;;;;;4127205;28;20042;-72
2022/04/04 05:09:51;;;;;;;8.98;4.72;;;25.90;72.50;;;;;;4179352;28;20040;-73
2022/04/04 05:11:56;;;;;;;12.00;5.00;;;26.10;72.40;;;;;;4177794;28;20111;-72
2022/04/04 05:14:02;;;;;;;9.73;4.88;;;26.10;71.40;;;;;;4178479;28;20037;-72
2022/04/04 05:16:10;;;;;;;10.13;4.50;;;25.90;71.20;;;;;;4178367;28;20064;-72
2022/04/04 05:18:18;;;;;;;11.82;4.18;;;25.90;71.80;;;;;;4176037;28;20116;-71
2022/04/04 05:20:25;;;;;;;9.55;5.10;;;26.10;72.70;;;;;;4178203;28;20088;-72
2022/04/04 05:22:30;;;;;;;10.02;3.85;;;26.30;72.20;;;;;;4178673;28;20057;-72
2022/04/04 05:24:36;;;;;;;12.02;4.80;;;26.30;71.70;;;;;;4178423;28;20111;-72
2022/04/04 05:26:43;;;;;;;8.90;4.75;;;26.20;71.20;;;;;;4177373;28;20044;-71
2022/04/04 05:28:47;;;;;;;10.48;4.25;;;26.20;70.60;;;;;;4178318;28;20047;-73
2022/04/04 05:30:53;;;;;;;10.75;4.55;;;26.20;72.90;;;;;;4178047;28;20049;-72
2022/04/04 05:33:01;;;;;;;9.10;4.82;;;26.30;71.80;;;;;;4176551;28;20037;-73
2022/04/04 05:35:07;;;;;;;9.27;4.82;;;26.40;72.40;;;;;;4161308;28;20088;-72
2022/04/04 05:37:12;;;;;;;8.85;4.90;;;26.50;70.70;;;;;;4178256;28;20510;-72
2022/04/04 05:39:19;;;;;;;12.20;4.95;;;26.30;71.20;;;;;;4177329;28;20052;-72
2022/04/04 05:41:24;;;;;;;9.52;4.88;;;26.30;71.20;;;;;;4160763;28;20574;-72
2022/04/04 05:43:30;;;;;;;9.10;4.53;;;26.30;70.60;;;;;;4178407;28;20083;-73
2022/04/04 05:45:39;;;;;;;9.07;4.38;;;26.40;71.60;;;;;;4175797;28;20494;-74
2022/04/04 05:47:47;;;;;;;10.52;5.00;;;26.30;71.00;;;;;;4178159;28;20041;-73
2022/04/04 05:49:54;;;;;;;10.48;4.75;;;26.40;71.20;;;;;;4178146;28;20052;-73
2022/04/04 05:52:00;;;;;;;10.85;4.57;;;26.60;70.60;;;;;;4176409;28;20048;-73
2022/04/04 05:54:06;;;;;;;10.50;4.78;;;26.60;71.40;;;;;;4178467;28;20037;-72
2022/04/04 05:56:12;;;;;;;8.73;4.47;;;26.60;71.80;;;;;;4178360;28;20216;-73
2022/04/04 05:58:19;;;;;;;12.85;5.00;;;26.60;71.80;;;;;;4142790;28;20045;-73
2022/04/04 06:00:25;;;;;;;13.65;4.80;;;26.70;71.20;;;;;;4176995;28;20037;-73
2022/04/04 06:02:32;;;;;;;9.05;4.68;;;26.80;72.20;;;;;;4178003;28;20107;-73
2022/04/04 06:04:38;;;;;;;8.00;4.50;;;26.90;71.70;;;;;;4126397;28;20869;-73
2022/04/04 06:06:42;;;;;;;11.23;4.30;;;26.70;71.00;;;;;;4126737;28;20050;-73
2022/04/04 06:08:47;;;;;;;9.05;4.85;;;26.60;69.90;;;;;;4126573;28;20046;-73
2022/04/04 06:10:52;;;;;;;10.68;4.95;;;26.60;71.50;;;;;;4126739;28;20058;-73
2022/04/04 06:12:57;;;;;;;8.23;4.32;;;26.90;72.50;;;;;;4126704;28;20054;-72
2022/04/04 06:15:03;;;;;;;10.55;5.05;;;26.90;71.10;;;;;;4125862;28;20038;-74
2022/04/04 06:17:10;;;;;;;9.55;4.38;;;27.00;71.80;;;;;;4133738;28;20092;-71
2022/04/04 06:19:19;;;;;;;7.93;4.10;;;27.10;71.60;;;;;;4108460;28;20046;-71
2022/04/04 06:21:26;;;;;;;9.98;4.40;;;27.00;71.20;;;;;;4120611;28;20113;-72
2022/04/04 06:23:33;;;;;;;9.52;4.40;;;27.00;70.30;;;;;;4124897;28;20058;-73
2022/04/04 06:25:38;;;;;;;10.30;4.22;;;27.00;71.20;;;;;;4124263;28;20216;-73
2022/04/04 06:27:44;;;;;;;8.82;4.38;;;27.00;71.20;;;;;;4110535;28;20057;-72
2022/04/04 06:29:51;;;;;;;7.85;4.07;;;27.10;71.60;;;;;;4120373;28;20078;-72
2022/04/04 06:31:56;;;;;;;10.05;4.45;;;27.20;71.30;;;;;;4127951;28;20508;-72
2022/04/04 06:34:01;;;;;;;9.50;4.43;;;27.20;70.90;;;;;;4127279;28;20050;-72
2022/04/04 06:36:08;;;;;;;12.07;4.22;;;27.20;71.30;;;;;;4151409;28;20087;-72
2022/04/04 06:38:12;;;;;;;11.50;4.57;;;27.20;72.00;;;;;;4177760;28;20115;-72
2022/04/04 06:40:18;;;;;;;10.25;4.85;;;27.10;71.20;;;;;;4177445;28;20380;-73
2022/04/04 06:42:24;;;;;;;10.88;4.47;;;27.00;70.90;;;;;;4144475;28;20042;-72
2022/04/04 06:44:29;;;;;;;8.00;4.43;;;27.10;71.00;;;;;;4177314;28;20045;-71
2022/04/04 06:46:36;;;;;;;10.50;4.68;;;27.10;70.80;;;;;;4177676;28;20044;-71
2022/04/04 06:48:41;;;;;;;10.32;4.47;;;27.10;70.40;;;;;;4176049;28;20426;-72
2022/04/04 06:50:47;;;;;;;8.50;4.63;;;27.20;71.10;;;;;;4179968;28;20045;-72
2022/04/04 06:52:53;;;;;;;8.48;4.32;;;27.10;71.20;;;;;;4177722;28;20033;-73
2022/04/04 06:55:17;;;;;;;8.02;4.00;;;27.10;70.90;;;;;;4159131;28;20046;-72
2022/04/04 06:57:25;;;;;;;7.35;3.78;;;27.30;71.50;;;;;;4179692;28;20116;-73
2022/04/04 06:59:37;;;;;;;11.23;4.32;;;27.30;70.80;;;;;;4177785;28;20095;-70
2022/04/04 07:01:43;;;;;;;8.45;4.50;;;27.40;69.90;;;;;;4179391;28;20135;-73
2022/04/04 07:03:47;;;;;;;10.57;4.68;;;27.40;70.70;;;;;;4179020;28;20053;-72
2022/04/04 07:05:55;;;;;;;10.90;4.03;;;27.50;70.00;;;;;;4160223;28;20057;-71
2022/04/04 07:08:02;;;;;;;10.98;4.32;;;27.50;69.80;;;;;;4146435;28;20053;-72
2022/04/04 07:10:07;;;;;;;8.38;4.95;;;27.50;70.00;;;;;;4162414;28;20054;-73
2022/04/04 07:12:14;;;;;;;8.18;4.20;;;27.40;70.40;;;;;;4162641;28;20116;-71
2022/04/04 07:14:21;;;;;;;7.07;3.92;;;27.30;70.90;;;;;;4152717;28;20523;-72
2022/04/04 07:16:25;;;;;;;8.35;4.20;;;27.40;70.60;;;;;;4179563;28;20555;-72
2022/04/04 07:18:32;;;;;;;9.07;4.10;;;27.40;72.90;;;;;;4180565;28;20049;-72
2022/04/04 07:20:40;;;;;;;10.32;4.28;;;27.50;70.30;;;;;;4179702;28;20072;-72
2022/04/04 07:22:45;;;;;;;7.68;4.43;;;27.60;70.90;;;;;;4179714;28;20296;-73
2022/04/04 07:24:51;;;;;;;12.70;4.90;;;27.60;70.90;;;;;;4162970;28;20099;-73
2022/04/04 07:26:58;;;;;;;10.30;4.78;;;27.70;70.40;;;;;;4182293;28;20780;-70
2022/04/04 07:29:02;;;;;;;12.23;4.30;;;27.80;70.90;;;;;;4182365;28;20042;-72
2022/04/04 07:31:09;;;;;;;9.52;4.40;;;27.60;70.60;;;;;;4183740;28;20044;-72
2022/04/04 07:33:18;;;;;;;11.75;3.97;;;27.70;71.10;;;;;;4183304;28;20665;-71
2022/04/04 07:35:23;;;;;;;10.70;4.55;;;27.80;70.90;;;;;;4176053;28;20160;-71
2022/04/04 07:37:30;;;;;;;10.13;4.18;;;27.80;71.10;;;;;;4165203;28;20056;-71
2022/04/04 07:39:37;;;;;;;7.00;4.13;;;27.90;70.00;;;;;;4183504;28;20104;-71
2022/04/04 07:41:42;;;;;;;9.15;4.53;;;27.80;70.90;;;;;;4182903;28;20050;-71
2022/04/04 07:43:48;;;;;;;6.35;3.95;;;27.80;70.20;;;;;;4165145;28;20136;-71
2022/04/04 07:45:55;;;;;;;10.90;4.25;;;27.80;70.00;;;;;;4182649;28;20052;-70
2022/04/04 07:48:00;;;;;;;11.55;4.00;;;27.90;70.70;;;;;;4182463;28;20522;-71
2022/04/04 07:50:07;;;;;;;9.70;3.80;;;27.80;70.40;;;;;;4149594;28;20042;-72
2022/04/04 07:52:14;;;;;;;8.02;4.22;;;27.90;70.90;;;;;;4183307;28;20045;-74
2022/04/04 07:54:18;;;;;;;9.20;3.95;;;27.80;70.20;;;;;;4165613;28;20060;-71
2022/04/04 07:56:26;;;;;;;9.75;4.32;;;27.80;70.70;;;;;;4183407;28;20056;-70
2022/04/04 07:58:33;;;;;;;7.88;4.18;;;27.80;71.00;;;;;;4182802;28;20041;-73
2022/04/04 08:00:37;;;;;;;8.82;4.25;;;27.90;69.70;;;;;;4157815;28;20052;-72
2022/04/04 08:02:44;;;;;;;11.85;4.32;;;27.90;70.00;;;;;;4180669;28;20045;-72
2022/04/04 08:04:51;;;;;;;8.00;4.03;;;28.00;69.30;;;;;;4179677;28;20083;-72
2022/04/04 08:06:55;;;;;;;7.38;4.10;;;28.00;70.10;;;;;;4162138;28;20095;-71
2022/04/04 08:09:00;;;;;;;7.88;4.32;;;28.10;70.50;;;;;;4182319;28;20041;-73
2022/04/04 08:11:09;;;;;;;8.45;4.13;;;28.10;70.10;;;;;;4181811;28;20048;-73
2022/04/04 08:13:13;;;;;;;10.07;4.38;;;28.10;70.30;;;;;;4182008;28;20045;-74
2022/04/04 08:15:19;;;;;;;9.13;4.38;;;28.20;71.70;;;;;;4181935;28;20033;-73
2022/04/04 08:17:32;;;;;;;10.95;4.43;;;28.10;70.30;;;;;;4165034;28;20068;-73
2022/04/04 08:19:37;;;;;;;7.85;4.18;;;28.00;69.60;;;;;;4179572;28;20048;-72
2022/04/04 08:21:45;;;;;;;14.07;4.80;;;28.10;69.60;;;;;;4180794;28;20063;-74
2022/04/04 08:23:53;;;;;;;10.73;5.25;;;28.10;69.70;;;;;;4179143;28;20057;-70
2022/04/04 08:26:00;;;;;;;8.57;4.55;;;28.10;69.30;;;;;;4162363;28;20052;-69
2022/04/04 08:28:05;;;;;;;9.18;4.30;;;28.10;69.70;;;;;;4179551;28;20667;-69
2022/04/04 08:30:13;;;;;;;6.82;4.13;;;28.10;70.90;;;;;;4163649;28;20076;-71
2022/04/04 08:32:18;;;;;;;11.68;4.60;;;28.10;70.10;;;;;;4179646;28;20036;-71
2022/04/04 08:34:24;;;;;;;10.98;4.88;;;28.10;70.80;;;;;;4181979;28;20041;-71
2022/04/04 08:36:31;;;;;;;9.23;4.47;;;28.10;69.50;;;;;;4181357;28;20049;-72
2022/04/04 08:38:38;;;;;;;8.00;4.45;;;28.10;70.20;;;;;;4177645;28;20052;-71
2022/04/04 08:40:44;;;;;;;9.43;4.03;;;28.10;70.00;;;;;;4189971;28;20193;-71
2022/04/04 08:43:52;;;;;;;;;;;;;;;;;;;;;
2022/04/04 08:46:34;;;;;;;8.35;4.68;;;28.20;70.60;;;;;;4174640;28;20670;-71
2022/04/04 08:48:39;;;;;;;10.68;4.90;;;28.20;70.70;;;;;;4181101;28;20067;-71
2022/04/04 08:50:44;;;;;;;7.43;4.40;;;28.20;71.10;;;;;;4187120;28;20467;-71
2022/04/04 08:52:50;;;;;;;8.50;4.53;;;28.20;71.50;;;;;;4167164;28;20040;-71
2022/04/04 08:55:03;;;;;;;9.07;4.32;;;28.30;70.70;;;;;;4169392;28;20096;-71
2022/04/04 08:57:08;;;;;;;9.52;4.68;;;28.20;70.00;;;;;;4181762;28;20044;-71
2022/04/04 08:59:16;;;;;;;8.43;5.05;;;28.20;70.30;;;;;;4165406;28;20052;-70
2022/04/04 09:01:23;;;;;;;7.95;4.43;;;28.20;70.60;;;;;;4185483;28;20045;-72
2022/04/04 09:03:31;;;;;;;10.23;4.57;;;28.20;70.40;;;;;;4191040;28;20068;-72
2022/04/04 09:05:54;;;;;;;9.15;4.63;;;28.10;70.30;;;;;;4193247;28;20040;-72
2022/04/04 09:08:06;;;;;;;10.63;5.18;;;28.10;71.00;;;;;;4168288;28;20668;-71
2022/04/04 09:10:14;;;;;;;9.43;5.05;;;28.10;70.70;;;;;;4186006;28;20044;-71
2022/04/04 09:12:23;;;;;;;8.40;4.43;;;28.20;70.50;;;;;;4145347;28;20038;-70
2022/04/04 09:14:30;;;;;;;7.65;4.72;;;28.20;70.30;;;;;;4179530;28;20045;-73
2022/04/04 09:16:34;;;;;;;8.30;5.15;;;28.20;71.30;;;;;;4161583;28;20412;-72
2022/04/04 09:18:42;;;;;;;10.07;4.30;;;28.10;71.00;;;;;;4162107;28;20057;-71
2022/04/04 09:20:52;;;;;;;8.93;4.22;;;28.10;70.90;;;;;;4144603;28;20065;-70
2022/04/04 09:22:59;;;;;;;8.55;4.95;;;28.20;70.80;;;;;;4166760;28;20748;-71
2022/04/04 09:25:05;;;;;;;8.18;4.95;;;28.10;70.70;;;;;;4171313;28;20132;-70
2022/04/04 09:27:13;;;;;;;12.60;5.18;;;28.10;71.60;;;;;;4119889;28;20047;-70
2022/04/04 09:29:23;;;;;;;10.18;5.15;;;28.10;70.30;;;;;;4152544;28;20069;-70
2022/04/04 09:31:29;;;;;;;7.80;4.63;;;28.10;70.90;;;;;;4157591;28;20460;-72
2022/04/04 09:33:43;;;;;;;7.38;4.45;;;28.10;71.30;;;;;;4111488;28;20051;-70
2022/04/04 09:35:52;;;;;;;9.48;4.70;;;28.10;70.90;;;;;;4120132;28;20134;-70
2022/04/04 09:37:57;;;;;;;8.93;4.85;;;28.10;71.50;;;;;;4119890;28;20645;-72
2022/04/04 09:40:12;;;;;;;12.77;5.40;;;28.10;71.30;;;;;;4088226;28;20075;-71
2022/04/04 09:42:19;;;;;;;11.77;5.15;;;28.10;71.30;;;;;;4089936;29;20705;-71
2022/04/04 09:44:25;;;;;;;10.73;4.88;;;28.10;71.00;;;;;;4062591;29;20814;-71
2022/04/04 09:46:33;;;;;;;15.52;5.38;;;28.10;71.50;;;;;;4085020;29;20434;-71
2022/04/04 09:48:37;;;;;;;9.43;5.13;;;28.10;70.90;;;;;;4087100;28;20095;-72
2022/04/04 09:50:48;;;;;;;10.00;4.78;;;28.10;71.20;;;;;;4087629;29;20054;-72
2022/04/04 09:52:57;;;;;;;9.68;5.05;;;28.10;70.90;;;;;;4086258;28;20043;-72
2022/04/04 09:55:01;;;;;;;9.25;5.15;;;28.10;71.20;;;;;;4073859;29;20042;-71
2022/04/04 09:57:16;;;;;;;7.70;4.85;;;28.10;70.10;;;;;;4064857;29;20064;-72
2022/04/04 09:59:22;;;;;;;12.80;5.25;;;28.00;70.90;;;;;;4071844;29;20040;-72
2022/04/04 10:01:30;;;;;;;12.90;5.63;;;28.00;71.00;;;;;;4075113;29;20052;-72
2022/04/04 10:03:35;;;;;;;12.20;6.90;;;28.10;71.70;;;;;;4073990;29;20047;-72
2022/04/04 10:05:43;;;;;;;18.08;11.82;;;28.10;71.80;;;;;;4088007;29;20534;-71
2022/04/04 10:07:49;;;;;;;13.40;8.55;;;28.10;72.00;;;;;;4086845;29;20130;-71
2022/04/04 10:10:01;;;;;;;16.95;8.68;;;28.10;71.80;;;;;;4069998;29;20447;-71
2022/04/04 10:12:08;;;;;;;18.27;11.18;;;28.10;72.10;;;;;;4088109;29;20047;-72
2022/04/04 10:14:15;;;;;;;17.17;10.70;;;28.10;72.20;;;;;;4079614;29;20043;-70
2022/04/04 10:16:22;;;;;;;10.15;7.55;;;28.10;72.10;;;;;;4076894;29;20733;-71
2022/04/04 10:18:32;;;;;;;24.30;14.10;;;28.10;72.60;;;;;;4105019;28;20051;-72
2022/04/04 10:20:39;;;;;;;16.60;9.52;;;28.00;72.60;;;;;;4101458;28;20047;-71
2022/04/04 10:22:45;;;;;;;15.13;7.32;;;28.00;72.20;;;;;;4077788;29;20523;-72
2022/04/04 10:24:56;;;;;;;14.85;11.30;;;28.00;72.50;;;;;;4076567;29;20051;-71
2022/04/04 10:27:00;;;;;;;14.23;9.50;;;28.00;72.70;;;;;;4063754;29;20053;-71
2022/04/04 10:29:14;;;;;;;14.20;7.22;;;27.90;73.10;;;;;;4089365;28;20098;-70
2022/04/04 10:31:21;;;;;;;13.75;6.05;;;27.90;73.10;;;;;;4116699;28;20058;-71
2022/04/04 10:33:30;;;;;;;12.80;5.43;;;27.90;73.30;;;;;;4113859;28;20085;-72
2022/04/04 10:35:38;;;;;;;9.25;6.00;;;27.90;72.70;;;;;;4095813;28;20046;-71
2022/04/04 10:37:44;;;;;;;10.68;5.53;;;27.90;72.90;;;;;;4098551;28;20830;-69
2022/04/04 10:39:49;;;;;;;8.88;5.75;;;27.80;72.70;;;;;;4109544;28;20147;-71
2022/04/04 10:41:56;;;;;;;9.57;5.18;;;27.90;72.80;;;;;;4125392;28;20055;-71
2022/04/04 10:44:21;;;;;;;9.50;5.13;;;27.80;72.70;;;;;;4113727;28;20042;-71
2022/04/04 10:46:26;;;;;;;12.45;5.40;;;27.80;73.10;;;;;;4127834;28;20436;-69
2022/04/04 10:48:35;;;;;;;11.30;5.57;;;27.70;73.80;;;;;;4126844;28;20042;-70
2022/04/04 10:50:42;;;;;;;15.13;6.53;;;27.70;74.00;;;;;;4126754;28;20038;-70
2022/04/04 10:52:47;;;;;;;12.63;6.45;;;27.70;73.90;;;;;;4126825;28;20050;-71
2022/04/04 10:54:54;;;;;;;13.65;6.47;;;27.70;74.10;;;;;;4175607;28;20820;-72
2022/04/04 10:57:00;;;;;;;13.73;6.25;;;27.60;74.90;;;;;;4176527;28;20040;-71
2022/04/04 10:59:20;;;;;;;11.38;7.03;;;27.60;75.00;;;;;;4160977;28;20677;-70